Alton, Alabama
Current Conditions -  °F | °C
As of 3:53 PM on Saturday 25 Oct 2014 (Local Time) from KBHM Reporting Station
Clear Clear  
Wind Chill: 24°   Ceiling: Unl
Heat Index: 24°   Visibility: 10mi
Dew Point: 13°   Wind: 6mph
Humidity: 50%   Direction: NA
Pressure: 30.06"   Gusts: NA
Location:  33.58°N, 86.64°W
Report Text: KBHM 252053Z VRB05KT 10SM CLR 24/13 A3006 RMK AO2 SLP176 T02440133 56014
Loading
Personal Weather Stations






























Interactive Weather Map
Tropical Storm Tracking
New forecast layout! Learn more

10-Day Weather Forecast

Advertisements
Track Severe Weather on mobile